Time;durP1;ratioP1;P1;durP2;ratioP2;P2;SDS_P1;SDS_P2;PMS_P1;PMS_P2;Temp;Humidity;BMP_temperature;BMP_pressure;BME280_temperature;BME280_humidity;BME280_pressure;Samples;Min_cycle;Max_cycle;Signal;HPM_P1;HPM_P2
2024/04/03 00:00:52;;;;;;;0.52;0.50;;;10.30;90.10;;;;;;5094315;28;20479;-76
2024/04/03 00:03:18;;;;;;;2.13;0.60;;;10.30;90.20;;;;;;5107633;28;20063;-76
2024/04/03 00:05:44;;;;;;;0.50;0.50;;;10.30;90.10;;;;;;5079079;28;20040;-76
2024/04/03 00:08:09;;;;;;;0.52;0.52;;;10.40;90.20;;;;;;5092758;28;20154;-76
2024/04/03 00:10:35;;;;;;;1.88;0.60;;;10.30;90.20;;;;;;5078924;28;20047;-76
2024/04/03 00:13:04;;;;;;;1.45;0.80;;;10.30;90.20;;;;;;5113159;28;20059;-77
2024/04/03 00:15:30;;;;;;;1.15;0.70;;;10.30;90.20;;;;;;5079105;28;20126;-76
2024/04/03 00:17:55;;;;;;;0.70;0.70;;;10.30;90.20;;;;;;5114765;28;20066;-77
2024/04/03 00:20:23;;;;;;;0.98;0.70;;;10.30;90.20;;;;;;5096063;28;20032;-77
2024/04/03 00:22:50;;;;;;;1.25;0.60;;;10.40;90.20;;;;;;5095959;28;20040;-77
2024/04/03 00:25:18;;;;;;;1.17;0.50;;;10.30;90.20;;;;;;5113747;28;20039;-76
2024/04/03 00:27:44;;;;;;;2.15;0.68;;;10.30;90.30;;;;;;5114146;28;20130;-76
2024/04/03 00:30:10;;;;;;;1.42;0.85;;;10.30;90.30;;;;;;5078792;28;20619;-76
2024/04/03 00:32:36;;;;;;;2.05;0.85;;;10.30;90.30;;;;;;5095465;28;20131;-76
2024/04/03 00:35:02;;;;;;;0.75;0.70;;;10.30;90.30;;;;;;5114006;28;20059;-76
2024/04/03 00:37:30;;;;;;;0.95;0.85;;;10.30;90.30;;;;;;5113897;28;20040;-76
2024/04/03 00:39:56;;;;;;;0.98;0.65;;;10.30;90.40;;;;;;5074839;28;20395;-76
2024/04/03 00:42:23;;;;;;;0.93;0.88;;;10.30;90.40;;;;;;5092066;28;20040;-76
2024/04/03 00:44:50;;;;;;;1.95;0.70;;;10.30;90.40;;;;;;5091881;28;20044;-77
2024/04/03 00:47:17;;;;;;;0.95;0.70;;;10.30;90.40;;;;;;5091811;28;20050;-77
2024/04/03 00:49:44;;;;;;;1.00;0.70;;;10.40;90.50;;;;;;5093199;28;20047;-76
2024/04/03 00:52:11;;;;;;;1.13;0.80;;;10.40;90.50;;;;;;5091738;28;20032;-76
2024/04/03 00:54:39;;;;;;;1.80;0.90;;;10.40;90.50;;;;;;5091886;28;20123;-76
2024/04/03 00:57:05;;;;;;;1.85;0.70;;;10.30;90.50;;;;;;5091782;28;20036;-77
2024/04/03 00:59:33;;;;;;;1.10;0.70;;;10.30;90.50;;;;;;5097261;28;20498;-77
2024/04/03 01:02:00;;;;;;;0.68;0.60;;;10.40;90.60;;;;;;5113541;28;20096;-77
2024/04/03 01:04:26;;;;;;;0.68;0.68;;;10.40;90.60;;;;;;5095387;28;20524;-76
2024/04/03 01:06:52;;;;;;;0.63;0.52;;;10.40;90.60;;;;;;5095385;28;20410;-77
2024/04/03 01:09:18;;;;;;;0.57;0.55;;;10.40;90.60;;;;;;5091767;28;20036;-77
2024/04/03 01:11:46;;;;;;;1.77;0.70;;;10.40;90.60;;;;;;5095147;28;20100;-76
2024/04/03 01:14:12;;;;;;;1.13;0.68;;;10.40;90.60;;;;;;5092204;28;20487;-76
2024/04/03 01:16:40;;;;;;;0.82;0.60;;;10.40;90.60;;;;;;5074571;28;20036;-76
2024/04/03 01:19:06;;;;;;;0.55;0.50;;;10.40;90.60;;;;;;5109828;28;20050;-77
2024/04/03 01:21:32;;;;;;;0.40;0.40;;;10.40;90.70;;;;;;5095167;28;20123;-76
2024/04/03 01:23:57;;;;;;;0.30;0.30;;;10.30;90.70;;;;;;5113033;28;20035;-76
2024/04/03 01:26:25;;;;;;;0.70;0.50;;;10.30;90.70;;;;;;5074671;28;20403;-76
2024/04/03 01:28:51;;;;;;;1.00;0.50;;;10.30;90.70;;;;;;5074538;28;20039;-76
2024/04/03 01:31:26;;;;;;;0.55;0.30;;;10.30;90.80;;;;;;5091428;28;20044;-77
2024/04/03 01:33:52;;;;;;;1.13;0.30;;;10.30;90.80;;;;;;5092705;28;20043;-76
2024/04/03 01:36:17;;;;;;;0.38;0.30;;;10.30;90.80;;;;;;5092790;28;20040;-76
2024/04/03 01:38:45;;;;;;;0.32;0.32;;;10.30;90.80;;;;;;5092987;28;20039;-76
2024/04/03 01:41:11;;;;;;;0.30;0.30;;;10.30;90.80;;;;;;5092649;28;20055;-76
2024/04/03 01:43:37;;;;;;;0.35;0.30;;;10.30;90.90;;;;;;5090938;28;20048;-76
2024/04/03 01:46:03;;;;;;;0.30;0.30;;;10.20;91.10;;;;;;5091090;28;20118;-76
2024/04/03 01:48:29;;;;;;;0.40;0.40;;;10.20;90.90;;;;;;5090803;28;20181;-77
2024/04/03 01:50:55;;;;;;;0.77;0.40;;;10.30;90.90;;;;;;5074044;28;20040;-77
2024/04/03 01:53:21;;;;;;;0.80;0.43;;;10.30;90.90;;;;;;5091275;28;20043;-76
2024/04/03 01:55:55;;;;;;;0.50;0.50;;;10.30;90.90;;;;;;5077584;28;20151;-77
2024/04/03 01:58:21;;;;;;;1.65;0.57;;;10.30;90.90;;;;;;5112571;28;20093;-77
2024/04/03 02:00:48;;;;;;;0.60;0.60;;;10.30;90.90;;;;;;5094914;28;20498;-77
2024/04/03 02:03:13;;;;;;;0.88;0.60;;;10.30;90.90;;;;;;5112436;28;20134;-77
2024/04/03 02:05:49;;;;;;;0.55;0.50;;;10.30;90.90;;;;;;5077351;28;20100;-77
2024/04/03 02:08:15;;;;;;;0.93;0.68;;;10.40;90.90;;;;;;5090989;28;20542;-78
2024/04/03 02:10:43;;;;;;;0.75;0.60;;;10.30;90.90;;;;;;5073800;28;20161;-77
2024/04/03 02:13:08;;;;;;;0.63;0.40;;;10.30;90.80;;;;;;5073971;28;20043;-77
2024/04/03 02:15:34;;;;;;;0.90;0.40;;;10.40;90.90;;;;;;5091977;28;20085;-78
2024/04/03 02:18:00;;;;;;;0.40;0.40;;;10.30;90.90;;;;;;5092200;28;20044;-78
2024/04/03 02:20:26;;;;;;;0.50;0.50;;;10.30;90.90;;;;;;5090666;28;20545;-77
2024/04/03 02:22:55;;;;;;;0.60;0.40;;;10.30;90.90;;;;;;5090494;28;20070;-78
2024/04/03 02:25:21;;;;;;;0.68;0.40;;;10.40;91.00;;;;;;5091769;28;20105;-77
2024/04/03 02:27:47;;;;;;;0.40;0.40;;;10.30;91.00;;;;;;5073467;28;20047;-77
2024/04/03 02:30:13;;;;;;;0.30;0.30;;;10.30;91.00;;;;;;5073486;28;20036;-78
2024/04/03 02:32:39;;;;;;;0.88;0.40;;;10.30;91.00;;;;;;5073455;28;20404;-78
2024/04/03 02:35:08;;;;;;;0.80;0.45;;;10.30;91.00;;;;;;5091981;28;20040;-77
2024/04/03 02:37:33;;;;;;;0.50;0.50;;;10.40;91.00;;;;;;5095035;28;20039;-77
2024/04/03 02:40:00;;;;;;;0.30;0.30;;;10.30;91.00;;;;;;5093839;28;20036;-77
2024/04/03 02:42:27;;;;;;;0.35;0.35;;;10.30;91.00;;;;;;5094150;28;20069;-77
2024/04/03 02:44:53;;;;;;;0.47;0.30;;;10.30;91.10;;;;;;5095436;28;20108;-78
2024/04/03 02:47:18;;;;;;;0.75;0.45;;;10.30;91.10;;;;;;5096683;28;20458;-78
2024/04/03 02:49:44;;;;;;;0.40;0.40;;;10.30;91.10;;;;;;5116077;28;20044;-77
2024/04/03 02:52:10;;;;;;;1.02;0.35;;;10.30;91.10;;;;;;5080545;28;20044;-77
2024/04/03 02:54:35;;;;;;;0.20;0.20;;;10.30;91.10;;;;;;5115507;28;20032;-77
2024/04/03 02:57:01;;;;;;;0.22;0.20;;;10.30;91.20;;;;;;5080327;28;20067;-77
2024/04/03 02:59:27;;;;;;;1.05;0.40;;;10.30;91.20;;;;;;5055489;28;20044;-78
2024/04/03 03:01:52;;;;;;;0.20;0.20;;;10.30;91.20;;;;;;5072874;28;20499;-77
2024/04/03 03:04:21;;;;;;;0.47;0.43;;;10.30;91.20;;;;;;5072523;28;20044;-77
2024/04/03 03:06:47;;;;;;;0.57;0.30;;;10.30;91.20;;;;;;5039241;28;20114;-77
2024/04/03 03:09:12;;;;;;;0.30;0.30;;;10.30;91.30;;;;;;5055449;28;20044;-77
2024/04/03 03:11:38;;;;;;;0.60;0.40;;;10.30;91.30;;;;;;5055769;28;20036;-77
2024/04/03 03:14:05;;;;;;;0.63;0.28;;;10.30;91.30;;;;;;5039463;28;20495;-77
2024/04/03 03:16:30;;;;;;;0.43;0.40;;;10.30;91.30;;;;;;5039283;28;20044;-77
2024/04/03 03:18:56;;;;;;;0.32;0.32;;;10.30;91.30;;;;;;5072474;28;20466;-77
2024/04/03 03:21:22;;;;;;;0.28;0.28;;;10.20;91.30;;;;;;5022503;28;20051;-77
2024/04/03 03:23:47;;;;;;;0.35;0.20;;;10.20;91.30;;;;;;5072359;28;20574;-77
2024/04/03 03:26:13;;;;;;;0.20;0.20;;;10.20;91.30;;;;;;5055785;28;20071;-77
2024/04/03 03:28:39;;;;;;;0.25;0.25;;;10.20;91.30;;;;;;5056199;28;20048;-77
2024/04/03 03:31:04;;;;;;;1.10;0.40;;;10.20;91.30;;;;;;5083976;28;20430;-77
2024/04/03 03:33:30;;;;;;;1.27;0.47;;;10.20;91.30;;;;;;5076182;28;20040;-78
2024/04/03 03:35:57;;;;;;;0.45;0.38;;;10.20;91.30;;;;;;5093282;28;20032;-77
2024/04/03 03:38:23;;;;;;;0.43;0.30;;;10.20;91.30;;;;;;5076287;28;20024;-77
2024/04/03 03:40:50;;;;;;;0.35;0.30;;;10.20;91.30;;;;;;5094350;28;20047;-77
2024/04/03 03:43:16;;;;;;;0.73;0.40;;;10.20;91.30;;;;;;5093144;28;20035;-77
2024/04/03 03:45:47;;;;;;;0.82;0.40;;;10.20;91.30;;;;;;5110201;28;20043;-77
2024/04/03 03:48:14;;;;;;;0.30;0.30;;;10.20;91.40;;;;;;5078559;28;20491;-77
2024/04/03 03:53:22;;;;;;;0.30;0.28;;;10.20;91.30;;;;;;5093341;28;20077;-77
2024/04/03 03:55:48;;;;;;;0.30;0.30;;;10.20;91.40;;;;;;5092732;28;20043;-77
2024/04/03 03:58:13;;;;;;;0.32;0.28;;;10.20;91.30;;;;;;5093230;28;20032;-77
2024/04/03 04:00:39;;;;;;;0.60;0.30;;;10.20;91.30;;;;;;5075790;28;20040;-77
2024/04/03 04:03:05;;;;;;;0.45;0.30;;;10.20;91.40;;;;;;5094273;28;20040;-78
2024/04/03 04:05:30;;;;;;;0.30;0.30;;;10.20;91.40;;;;;;5097075;28;20036;-77
2024/04/03 04:07:56;;;;;;;0.22;0.22;;;10.20;91.40;;;;;;5114552;28;20511;-77
2024/04/03 04:10:22;;;;;;;0.45;0.38;;;10.20;91.40;;;;;;5115072;28;20096;-77
2024/04/03 04:12:48;;;;;;;0.77;0.40;;;10.20;91.40;;;;;;5096198;28;20096;-77
2024/04/03 04:15:14;;;;;;;0.32;0.20;;;10.20;91.40;;;;;;5096503;28;20036;-78
2024/04/03 04:17:40;;;;;;;0.32;0.32;;;10.20;91.40;;;;;;5092677;28;20603;-78
2024/04/03 04:20:07;;;;;;;0.28;0.28;;;10.10;91.40;;;;;;5094204;28;20036;-78
2024/04/03 04:22:34;;;;;;;0.22;0.22;;;10.20;91.40;;;;;;5092634;28;20414;-78
2024/04/03 04:25:02;;;;;;;0.43;0.40;;;10.20;91.40;;;;;;5092677;28;20046;-78
2024/04/03 04:27:28;;;;;;;0.30;0.30;;;10.20;91.50;;;;;;5092606;28;20040;-78
2024/04/03 04:29:55;;;;;;;0.47;0.35;;;10.10;91.40;;;;;;5092492;28;20044;-78
2024/04/03 04:32:20;;;;;;;0.40;0.40;;;10.20;91.50;;;;;;5094072;28;20126;-78
2024/04/03 04:34:46;;;;;;;0.22;0.22;;;10.10;91.40;;;;;;5092449;28;20123;-78
2024/04/03 04:37:12;;;;;;;1.63;0.28;;;10.10;91.50;;;;;;5093807;28;20035;-78
2024/04/03 04:39:38;;;;;;;0.60;0.43;;;10.10;91.50;;;;;;5075576;28;20082;-78
2024/04/03 04:42:04;;;;;;;0.30;0.30;;;10.10;91.50;;;;;;5075599;28;20036;-78
2024/04/03 04:44:30;;;;;;;0.73;0.30;;;10.20;91.50;;;;;;5093668;28;20074;-78
2024/04/03 04:46:58;;;;;;;0.55;0.40;;;10.20;91.50;;;;;;5075388;28;20024;-78
2024/04/03 04:49:24;;;;;;;0.32;0.30;;;10.10;91.50;;;;;;5092228;28;20032;-78
2024/04/03 04:51:51;;;;;;;1.02;0.30;;;10.10;91.50;;;;;;5093552;28;20043;-78
2024/04/03 04:54:17;;;;;;;0.50;0.50;;;10.10;91.50;;;;;;5091955;28;20048;-78
2024/04/03 04:56:43;;;;;;;0.55;0.38;;;10.10;91.50;;;;;;5093202;28;20387;-78
2024/04/03 04:59:09;;;;;;;0.30;0.30;;;10.10;91.50;;;;;;5091497;28;20040;-78
2024/04/03 05:01:38;;;;;;;0.95;0.30;;;10.10;91.50;;;;;;5092146;28;20083;-77
2024/04/03 05:04:04;;;;;;;0.88;0.30;;;10.10;91.50;;;;;;5092079;28;20073;-77
2024/04/03 05:06:30;;;;;;;0.35;0.30;;;10.00;91.50;;;;;;5092357;28;20040;-78
2024/04/03 05:08:57;;;;;;;0.38;0.38;;;10.10;91.50;;;;;;5092115;28;20055;-78
2024/04/03 05:11:23;;;;;;;0.73;0.30;;;10.20;91.50;;;;;;5075058;28;20556;-78
2024/04/03 05:13:49;;;;;;;0.30;0.30;;;10.10;91.50;;;;;;5092975;28;20052;-78
2024/04/03 05:16:20;;;;;;;0.63;0.32;;;10.10;91.60;;;;;;5091810;28;20040;-78
2024/04/03 05:18:47;;;;;;;0.32;0.30;;;10.10;91.50;;;;;;5092974;28;20127;-78
2024/04/03 05:21:13;;;;;;;0.28;0.28;;;10.10;91.50;;;;;;5113935;28;20119;-77
2024/04/03 05:23:39;;;;;;;1.40;0.45;;;10.10;91.50;;;;;;5091576;28;20043;-78
2024/04/03 05:26:08;;;;;;;0.20;0.20;;;10.10;91.50;;;;;;5093057;28;20441;-78
2024/04/03 05:28:36;;;;;;;0.30;0.30;;;10.10;91.50;;;;;;5091237;28;20568;-78
2024/04/03 05:31:05;;;;;;;0.20;0.20;;;10.10;91.50;;;;;;5058615;28;20082;-77
2024/04/03 05:33:35;;;;;;;0.20;0.20;;;10.10;91.80;;;;;;5074850;28;20063;-77
2024/04/03 05:36:03;;;;;;;0.30;0.30;;;10.10;91.50;;;;;;5058374;28;20040;-75
2024/04/03 05:38:29;;;;;;;0.40;0.40;;;10.10;91.60;;;;;;5075099;28;20071;-78
2024/04/03 05:40:55;;;;;;;0.73;0.30;;;10.10;91.60;;;;;;5091233;28;20062;-75
2024/04/03 05:43:22;;;;;;;0.30;0.30;;;10.10;91.80;;;;;;5092677;28;20047;-77
2024/04/03 05:45:50;;;;;;;0.40;0.28;;;10.00;91.50;;;;;;5091139;28;20055;-75
2024/04/03 05:48:16;;;;;;;0.30;0.30;;;10.20;91.60;;;;;;5091373;28;20051;-75
2024/04/03 05:50:41;;;;;;;0.40;0.40;;;10.10;91.60;;;;;;5093018;28;20040;-75
2024/04/03 05:53:07;;;;;;;1.10;0.30;;;10.10;91.60;;;;;;5057527;28;20067;-75
2024/04/03 05:55:33;;;;;;;0.30;0.30;;;10.20;91.60;;;;;;5098898;28;20036;-76
2024/04/03 05:58:02;;;;;;;0.40;0.30;;;10.20;91.60;;;;;;5074391;28;20071;-76
2024/04/03 06:00:28;;;;;;;0.20;0.20;;;10.20;91.60;;;;;;5091142;28;20033;-76
2024/04/03 06:02:54;;;;;;;1.35;0.35;;;10.20;91.60;;;;;;5091045;28;20050;-77
2024/04/03 06:05:19;;;;;;;0.20;0.20;;;10.20;91.60;;;;;;5092385;28;20127;-77
2024/04/03 06:07:45;;;;;;;0.40;0.40;;;10.10;91.60;;;;;;5091023;28;20040;-76
2024/04/03 06:10:13;;;;;;;0.50;0.30;;;10.20;91.60;;;;;;5074076;28;20047;-77
2024/04/03 06:12:39;;;;;;;0.68;0.40;;;10.10;91.60;;;;;;5073267;28;20063;-77
2024/04/03 06:15:06;;;;;;;0.65;0.60;;;10.20;91.60;;;;;;5092575;28;20036;-76
2024/04/03 06:17:31;;;;;;;0.40;0.40;;;10.10;91.60;;;;;;5091219;28;20119;-77
2024/04/03 06:19:57;;;;;;;1.48;0.40;;;10.20;91.60;;;;;;5090631;28;20123;-77
2024/04/03 06:22:23;;;;;;;0.90;0.43;;;10.20;91.60;;;;;;5092048;28;20044;-77
2024/04/03 06:24:49;;;;;;;1.05;0.50;;;10.20;91.60;;;;;;5090584;28;20044;-77
2024/04/03 06:27:15;;;;;;;1.42;0.50;;;10.20;91.60;;;;;;5094158;28;20070;-76
2024/04/03 06:30:04;;;;;;;0.32;0.20;;;10.20;91.60;;;;;;5102402;28;20040;-76
2024/04/03 06:32:34;;;;;;;0.82;0.40;;;10.30;91.60;;;;;;5004862;28;20037;-75
2024/04/03 06:35:06;;;;;;;0.73;0.50;;;10.30;91.60;;;;;;5000435;28;20125;-77
2024/04/03 06:37:40;;;;;;;0.95;0.40;;;10.20;91.50;;;;;;4981830;28;20070;-77
2024/04/03 06:42:56;;;;;;;0.88;0.60;;;10.40;91.60;;;;;;4936946;28;20054;-75
2024/04/03 06:45:44;;;;;;;0.40;0.40;;;10.40;91.50;;;;;;4915913;29;20046;-76
2024/04/03 06:48:42;;;;;;;2.67;0.70;;;10.40;91.80;;;;;;4902803;29;20044;-75
2024/04/03 07:08:18;;;;;;;1.10;0.50;;;10.60;91.40;;;;;;4742477;30;20067;-75
2024/04/03 07:13:58;;;;;;;0.45;0.30;;;10.60;91.30;;;;;;4746445;30;20063;-75
2024/04/03 07:18:00;;;;;;;0.43;0.32;;;10.60;91.30;;;;;;4769009;30;20147;-76
2024/04/03 07:20:42;;;;;;;0.90;0.47;;;10.70;91.40;;;;;;4812666;29;20046;-78
2024/04/03 07:23:26;;;;;;;0.75;0.40;;;10.60;91.30;;;;;;4788235;29;20147;-77
2024/04/03 07:26:14;;;;;;;1.33;0.35;;;10.70;91.40;;;;;;4754269;30;20075;-76
2024/04/03 07:28:49;;;;;;;0.63;0.50;;;10.70;91.40;;;;;;4749644;30;20048;-75
2024/04/03 07:31:52;;;;;;;0.38;0.28;;;10.70;91.40;;;;;;4771711;29;20473;-76
2024/04/03 07:34:44;;;;;;;1.40;0.30;;;10.70;91.40;;;;;;4784759;29;20154;-76
2024/04/03 07:37:44;;;;;;;0.30;0.30;;;10.80;91.40;;;;;;4802085;29;20162;-76
2024/04/03 07:41:12;;;;;;;0.43;0.40;;;10.80;91.40;;;;;;4750373;30;20055;-77
2024/04/03 07:44:17;;;;;;;0.90;0.50;;;10.80;91.40;;;;;;4784433;29;20480;-76
2024/04/03 07:46:55;;;;;;;1.27;0.50;;;10.80;91.40;;;;;;4824364;29;20044;-75
2024/04/03 07:49:53;;;;;;;0.35;0.35;;;10.80;91.40;;;;;;4877044;29;20053;-76
2024/04/03 07:52:38;;;;;;;0.32;0.30;;;10.80;91.40;;;;;;4849535;29;20049;-77
2024/04/03 07:55:52;;;;;;;0.55;0.32;;;10.80;91.40;;;;;;4901062;29;20044;-77
2024/04/03 07:58:37;;;;;;;0.75;0.30;;;10.90;91.50;;;;;;4876937;29;20037;-75
2024/04/03 08:01:54;;;;;;;0.80;0.52;;;10.80;91.40;;;;;;4818658;29;20083;-75
2024/04/03 08:08:36;;;;;;;0.47;0.40;;;10.80;91.50;;;;;;4877255;29;20614;-77
2024/04/03 08:11:13;;;;;;;0.57;0.40;;;10.80;91.50;;;;;;4820998;29;20057;-77
2024/04/03 08:13:53;;;;;;;0.20;0.20;;;10.90;91.50;;;;;;4812527;29;20050;-77
2024/04/03 08:16:35;;;;;;;0.20;0.20;;;10.90;91.50;;;;;;4781990;29;20059;-77
2024/04/03 08:19:13;;;;;;;0.30;0.30;;;11.00;91.50;;;;;;4767392;30;20055;-77
2024/04/03 08:21:52;;;;;;;1.50;0.43;;;11.00;91.40;;;;;;4767922;30;20094;-77
2024/04/03 08:25:18;;;;;;;0.50;0.38;;;11.00;91.40;;;;;;4787201;29;20051;-75
2024/04/03 08:28:03;;;;;;;0.35;0.32;;;11.20;91.40;;;;;;4821618;29;20490;-76
2024/04/03 08:31:45;;;;;;;1.33;0.40;;;11.10;91.30;;;;;;4820643;29;20089;-76
2024/04/03 08:40:28;;;;;;;0.47;0.30;;;11.20;91.50;;;;;;4729615;30;20112;-75
2024/04/03 08:42:59;;;;;;;0.30;0.30;;;11.00;91.40;;;;;;4727503;30;20049;-76
2024/04/03 08:48:22;;;;;;;1.27;0.50;;;11.00;91.50;;;;;;4848034;29;20059;-75
2024/04/03 08:50:50;;;;;;;1.15;0.30;;;11.00;91.50;;;;;;4882228;29;20092;-75
2024/04/03 08:53:26;;;;;;;0.85;0.50;;;11.10;91.50;;;;;;4880487;29;20071;-75
2024/04/03 08:56:58;;;;;;;0.73;0.47;;;11.10;91.50;;;;;;4895305;29;20036;-77
2024/04/03 08:59:26;;;;;;;0.52;0.50;;;11.00;91.50;;;;;;4848610;29;20048;-75
2024/04/03 09:02:07;;;;;;;0.40;0.40;;;11.20;91.50;;;;;;4910731;28;20067;-75
2024/04/03 09:05:00;;;;;;;0.70;0.50;;;11.00;91.50;;;;;;4945801;28;20043;-76
2024/04/03 09:07:44;;;;;;;1.08;0.50;;;11.00;91.50;;;;;;4919250;29;20051;-76
2024/04/03 09:13:57;;;;;;;0.60;0.40;;;11.10;91.50;;;;;;5011027;28;20052;-76
2024/04/03 09:16:28;;;;;;;0.50;0.50;;;11.20;91.50;;;;;;4994156;28;20116;-74
2024/04/03 09:19:13;;;;;;;0.67;0.43;;;11.10;91.50;;;;;;4994517;28;20133;-76
2024/04/03 09:21:40;;;;;;;1.08;0.55;;;11.10;91.60;;;;;;5010786;28;20292;-75
2024/04/03 09:24:38;;;;;;;1.52;0.63;;;11.10;91.50;;;;;;4993935;28;20125;-76
2024/04/03 09:27:27;;;;;;;0.45;0.45;;;11.10;91.60;;;;;;4994653;28;20052;-76
2024/04/03 09:29:56;;;;;;;0.60;0.50;;;11.10;91.60;;;;;;4996976;28;20046;-76
2024/04/03 09:32:22;;;;;;;0.80;0.50;;;11.10;91.60;;;;;;4994386;28;20160;-76
2024/04/03 09:34:50;;;;;;;0.40;0.40;;;11.10;91.60;;;;;;5021167;28;20049;-74
2024/04/03 09:37:16;;;;;;;0.82;0.52;;;11.10;91.80;;;;;;5013826;28;20046;-76
2024/04/03 09:39:42;;;;;;;0.40;0.40;;;11.20;91.60;;;;;;5013932;28;20048;-77
2024/04/03 09:42:16;;;;;;;0.50;0.30;;;11.20;91.60;;;;;;5070023;28;20039;-76
2024/04/03 09:44:45;;;;;;;0.60;0.30;;;11.10;91.60;;;;;;5058488;28;20036;-76
2024/04/03 09:54:30;;;;;;;0.57;0.40;;;11.30;91.60;;;;;;4957157;28;20054;-76
2024/04/03 09:57:43;;;;;;;0.52;0.43;;;11.20;91.50;;;;;;4961388;28;20051;-77
2024/04/03 10:03:38;;;;;;;0.68;0.40;;;11.40;91.50;;;;;;4928756;29;20403;-76
2024/04/03 10:06:29;;;;;;;0.38;0.38;;;11.40;91.40;;;;;;4949297;28;20059;-76
2024/04/03 10:12:42;;;;;;;0.40;0.40;;;11.40;91.30;;;;;;4920852;29;20047;-76
2024/04/03 10:15:40;;;;;;;0.40;0.40;;;11.60;91.30;;;;;;4925750;29;20048;-76
2024/04/03 10:18:28;;;;;;;1.23;0.32;;;11.60;91.20;;;;;;4913168;29;20127;-77
2024/04/03 10:22:08;;;;;;;0.60;0.60;;;11.60;91.20;;;;;;4948858;28;20535;-77
2024/04/03 10:25:21;;;;;;;0.60;0.60;;;11.70;91.20;;;;;;4945067;28;20066;-78
2024/04/03 10:27:49;;;;;;;0.73;0.60;;;11.70;91.20;;;;;;4961884;28;20055;-77
2024/04/03 10:30:18;;;;;;;0.57;0.57;;;12.00;91.20;;;;;;4936388;28;20098;-77
2024/04/03 10:32:45;;;;;;;0.68;0.50;;;12.10;91.00;;;;;;4971217;28;20538;-76
2024/04/03 10:35:11;;;;;;;0.30;0.30;;;12.20;90.90;;;;;;5013726;28;20133;-76
2024/04/03 10:37:37;;;;;;;0.70;0.47;;;12.20;90.80;;;;;;5016480;28;20040;-76
2024/04/03 10:40:10;;;;;;;0.50;0.50;;;12.30;90.80;;;;;;5033067;28;20045;-76
2024/04/03 10:42:37;;;;;;;1.15;0.50;;;12.30;90.80;;;;;;5018898;28;20052;-76
2024/04/03 10:45:08;;;;;;;1.08;0.40;;;12.40;90.70;;;;;;5037875;28;20048;-76
2024/04/03 10:47:34;;;;;;;0.50;0.50;;;12.50;90.80;;;;;;4999360;28;20404;-73
2024/04/03 10:50:00;;;;;;;0.68;0.55;;;12.60;90.70;;;;;;4996483;28;20128;-74
2024/04/03 10:52:26;;;;;;;0.85;0.43;;;12.60;90.60;;;;;;5012881;28;20128;-74
2024/04/03 10:54:52;;;;;;;0.55;0.50;;;12.70;90.60;;;;;;5013114;28;20493;-74
2024/04/03 10:57:18;;;;;;;0.98;0.43;;;12.70;90.60;;;;;;5044534;28;20044;-75
2024/04/03 10:59:43;;;;;;;0.40;0.40;;;12.80;90.60;;;;;;5050634;28;20049;-75
2024/04/03 11:02:10;;;;;;;0.52;0.40;;;12.80;90.50;;;;;;5067935;28;20064;-75
2024/04/03 11:04:35;;;;;;;0.50;0.50;;;12.80;90.60;;;;;;5050681;28;20041;-75
2024/04/03 11:07:01;;;;;;;1.00;0.55;;;12.80;90.60;;;;;;5066842;28;20508;-75
2024/04/03 11:09:27;;;;;;;0.60;0.40;;;12.70;90.60;;;;;;5068672;28;20125;-75
2024/04/03 11:11:53;;;;;;;0.50;0.50;;;12.70;90.60;;;;;;5049841;28;20524;-76
2024/04/03 11:14:23;;;;;;;0.50;0.50;;;12.70;90.70;;;;;;5066052;28;20190;-74
2024/04/03 11:16:51;;;;;;;0.52;0.50;;;12.70;90.70;;;;;;5050997;28;20049;-75
2024/04/03 11:19:18;;;;;;;1.05;0.68;;;12.70;90.70;;;;;;5079149;28;20131;-75
2024/04/03 11:21:46;;;;;;;0.52;0.40;;;12.70;90.70;;;;;;5050296;28;20036;-76
2024/04/03 11:24:16;;;;;;;1.00;0.43;;;12.80;90.70;;;;;;5081899;28;20454;-76
2024/04/03 11:26:44;;;;;;;0.63;0.52;;;12.70;90.80;;;;;;5081121;28;20050;-76
2024/04/03 11:29:26;;;;;;;0.40;0.40;;;12.70;90.70;;;;;;5089822;28;20048;-76
2024/04/03 11:31:54;;;;;;;0.75;0.50;;;12.70;90.80;;;;;;5098108;28;20043;-77
2024/04/03 11:34:24;;;;;;;0.30;0.30;;;12.70;90.80;;;;;;5060516;28;20051;-76
2024/04/03 11:36:56;;;;;;;0.30;0.30;;;12.80;90.80;;;;;;5077581;28;20097;-78
2024/04/03 11:39:22;;;;;;;0.85;0.50;;;12.70;90.70;;;;;;5077510;28;20036;-77
2024/04/03 11:59:47;;;;;;;0.50;0.50;;;12.70;90.70;;;;;;4938961;29;20051;-77
2024/04/03 12:02:22;;;;;;;0.40;0.40;;;12.70;90.70;;;;;;4935244;29;20051;-75
2024/04/03 12:04:48;;;;;;;0.30;0.30;;;12.70;90.70;;;;;;4898411;29;20041;-76
2024/04/03 12:07:14;;;;;;;0.32;0.32;;;12.80;90.70;;;;;;4903671;29;20103;-76
2024/04/03 12:28:36;;;;;;;0.40;0.40;;;12.90;90.60;;;;;;4770228;30;20059;-76
2024/04/03 12:32:06;;;;;;;0.32;0.32;;;12.90;90.60;;;;;;4747663;30;20421;-76
2024/04/03 12:38:36;;;;;;;0.40;0.40;;;12.90;90.60;;;;;;4681687;30;20049;-76
2024/04/03 13:13:49;;;;;;;0.55;0.50;;;13.10;90.50;;;;;;4838373;29;20102;-77
2024/04/03 13:31:48;;;;;;;0.52;0.52;;;13.00;90.70;;;;;;4893366;29;20051;-75
2024/04/03 14:25:58;;;;;;;0.30;0.30;;;14.60;89.40;;;;;;4881116;29;20108;-76
2024/04/03 14:49:52;;;;;;;0.80;0.45;;;14.50;89.40;;;;;;4700716;30;20057;-76
2024/04/03 15:43:07;;;;;;;0.30;0.30;;;14.50;89.40;;;;;;4859535;29;20094;-77
2024/04/03 15:45:37;;;;;;;0.30;0.30;;;14.40;89.60;;;;;;4844976;29;20045;-77
2024/04/03 15:48:04;;;;;;;0.50;0.50;;;14.30;89.70;;;;;;4844872;29;20060;-77
2024/04/03 15:50:30;;;;;;;0.75;0.40;;;14.40;90.00;;;;;;4860287;29;20060;-77
2024/04/03 15:53:02;;;;;;;0.73;0.57;;;14.00;90.00;;;;;;4844825;29;20498;-77
2024/04/03 15:55:27;;;;;;;0.40;0.40;;;13.90;90.20;;;;;;4860905;29;20041;-78
2024/04/03 16:30:54;;;;;;;0.70;0.40;;;14.00;90.10;;;;;;4839104;29;20083;-76
2024/04/03 16:41:52;;;;;;;0.40;0.40;;;13.80;90.30;;;;;;4748060;30;20090;-76
2024/04/03 16:58:24;;;;;;;0.43;0.43;;;13.70;90.40;;;;;;5150567;27;20131;-75
2024/04/03 17:01:09;;;;;;;0.40;0.40;;;13.60;90.40;;;;;;5094850;28;20039;-76
2024/04/03 17:03:36;;;;;;;0.50;0.50;;;13.60;90.50;;;;;;5130106;28;20070;-75
2024/04/03 17:06:04;;;;;;;0.40;0.40;;;13.70;90.50;;;;;;5129656;28;20059;-75
2024/04/03 17:08:30;;;;;;;0.80;0.70;;;13.90;90.50;;;;;;5130020;28;20122;-75
2024/04/03 17:10:55;;;;;;;0.75;0.47;;;13.80;90.40;;;;;;5111410;28;20090;-75
2024/04/03 17:13:21;;;;;;;1.55;0.60;;;13.70;90.40;;;;;;5129507;28;20035;-75
2024/04/03 17:15:47;;;;;;;0.38;0.32;;;13.70;90.40;;;;;;5129874;28;20053;-75
2024/04/03 17:18:12;;;;;;;0.93;0.40;;;13.70;90.40;;;;;;5093896;28;20214;-76
2024/04/03 17:20:40;;;;;;;0.77;0.30;;;13.60;90.30;;;;;;5108789;28;20036;-75
2024/04/03 17:23:06;;;;;;;0.30;0.30;;;13.50;90.60;;;;;;5110667;28;20122;-76
2024/04/03 17:25:31;;;;;;;0.63;0.30;;;13.40;90.40;;;;;;5129227;28;20058;-76
2024/04/03 17:27:57;;;;;;;0.40;0.30;;;13.30;90.40;;;;;;5129775;28;20051;-76
2024/04/03 17:30:26;;;;;;;0.77;0.40;;;13.30;90.40;;;;;;5110766;28;20553;-76
2024/04/03 17:32:52;;;;;;;1.30;0.30;;;13.30;90.40;;;;;;5110309;28;20075;-75
2024/04/03 17:35:18;;;;;;;0.88;0.30;;;13.20;90.40;;;;;;5129467;28;20465;-75
2024/04/03 17:37:43;;;;;;;0.73;0.30;;;13.20;90.40;;;;;;5110843;28;20050;-75
2024/04/03 17:40:09;;;;;;;1.20;0.50;;;13.30;90.40;;;;;;5129284;28;20177;-73
2024/04/03 17:42:35;;;;;;;2.42;0.40;;;13.10;90.30;;;;;;5129223;28;20192;-74
2024/04/03 17:45:07;;;;;;;0.30;0.30;;;13.10;90.20;;;;;;5129288;28;20476;-73
2024/04/03 17:47:34;;;;;;;2.13;0.35;;;13.10;90.20;;;;;;5111189;28;20400;-73
2024/04/03 17:49:59;;;;;;;1.20;0.43;;;13.00;90.00;;;;;;5110627;28;20454;-75
2024/04/03 17:52:25;;;;;;;0.30;0.30;;;13.00;90.00;;;;;;5128738;28;20103;-76
2024/04/03 17:54:53;;;;;;;0.38;0.30;;;12.90;89.90;;;;;;5093477;28;20482;-74
2024/04/03 17:57:19;;;;;;;0.20;0.17;;;12.90;89.90;;;;;;5129213;28;20492;-74
2024/04/03 17:59:45;;;;;;;0.10;0.10;;;12.90;89.90;;;;;;5129426;28;20083;-73
2024/04/03 18:02:11;;;;;;;0.30;0.20;;;12.80;89.90;;;;;;5128578;28;20397;-73
2024/04/03 18:04:38;;;;;;;0.43;0.20;;;12.80;89.90;;;;;;5110586;28;20043;-73
2024/04/03 18:07:05;;;;;;;0.85;0.20;;;12.80;89.90;;;;;;5128281;28;20118;-74
2024/04/03 18:09:31;;;;;;;0.98;0.22;;;12.80;89.80;;;;;;5114974;28;20434;-74
2024/04/03 18:11:59;;;;;;;0.20;0.20;;;12.70;89.70;;;;;;5096375;28;20086;-75
2024/04/03 18:14:26;;;;;;;0.20;0.20;;;12.70;89.60;;;;;;5096749;28;20048;-75
2024/04/03 18:16:52;;;;;;;0.30;0.30;;;12.70;89.50;;;;;;5096455;28;20091;-75
2024/04/03 18:19:18;;;;;;;0.30;0.30;;;12.70;89.50;;;;;;5062763;28;20127;-75
2024/04/03 18:21:44;;;;;;;0.90;0.38;;;12.70;89.40;;;;;;5114764;28;20043;-74
2024/04/03 18:24:12;;;;;;;0.25;0.25;;;12.70;89.40;;;;;;5078824;28;20047;-74
2024/04/03 18:26:38;;;;;;;0.38;0.30;;;12.70;89.30;;;;;;5062339;28;20040;-74
2024/04/03 18:29:04;;;;;;;0.50;0.40;;;12.60;89.20;;;;;;5096548;28;20083;-74
2024/04/03 18:31:30;;;;;;;1.85;0.40;;;12.60;89.10;;;;;;5114650;28;20043;-75
2024/04/03 18:33:56;;;;;;;0.88;0.35;;;12.60;89.00;;;;;;5096070;28;20104;-74